Belize City, Belize

10:05 AM CST on April 27, 2017 (GMT -0600)
Slaughter House Rd, Bze City | | Change Station

Elev 10 ft 17.49 °N, 88.19 °W | Updated 5 seconds ago

Clear
Clear
86.9 °F
Feels Like 99 °F
N
10.5
Wind Variable Wind from South
Gusts 10.5 mph

Today
High -- | Low -- °F
--% Chance of Precip.
Yesterday
High -- | Low -- °F
Precip. -- in
Pressure 29.74 in
Visibility 3.7 miles
Clouds Few 2300 ft
Heat Index 99 °F
Dew Point 77 °F
Humidity 73%
Rainfall 0.00 in
Snow Depth Not available.
5:28 AM 6:12 PM
New Moon, 2% visible
METAR MZBZ 271600Z 05006KT 6000 FEW023 32/28 A2974 Q1007 NOSIG RMK HAZY
Pressure 29.74 in
Visibility 3.7 miles
Clouds Few 2300 ft
Heat Index 99 °F
Dew Point 77 °F
Humidity 73%
Rainfall 0.00 in
Snow Depth Not available.
5:28 AM 6:12 PM
New Moon, 2% visible
METAR MZBZ 271600Z 05006KT 6000 FEW023 32/28 A2974 Q1007 NOSIG RMK HAZY

Get Severe Weather Alerts

Thanks for signing up!

Be on the lookout for a verification email in your inbox.

You'll start receiving the daily forecast at 8 AM.

×

10-Day Weather Forecast

No radar image for this location.
×

Almanac

Astronomy

Apr. 27, 2017 Rise Set
Actual Time
Civil Twilight
Nautical Twilight
Astronomical Twilight
Moon
Length of Visible Light
Length of Day
Tomorrow will be .
, % of the Moon is Illuminated

Today's Extremes

Country Highs Country Lows

Community

WunderPhotos

WunderBlog® & News

Nearby

Air Quality

  Air Quality AQ Index Pollutant
Not available.

Snow Depth

Station Depth Elevation

Earthquake Activity

City Distance Mag. Time & Date
Minimum magnitude displayed is 2.5.

Coastal Water Temperatures

Place Temperature

Stations

Nearby Weather Stations

Station Location Temp. Windchill Dew Point Humidity Wind Precip. Elev Updated Type